sensor_id;sensor_type;location;lat;lon;timestamp;temperature;humidity
51383;DHT22;37475;43.358;1.248;2022-10-19T00:02:07;19.10;91.40
51383;DHT22;37475;43.358;1.248;2022-10-19T00:04:33;19.10;91.20
51383;DHT22;37475;43.358;1.248;2022-10-19T00:06:59;19.10;91.30
51383;DHT22;37475;43.358;1.248;2022-10-19T00:09:25;19.00;91.50
51383;DHT22;37475;43.358;1.248;2022-10-19T00:11:51;19.00;91.60
51383;DHT22;37475;43.358;1.248;2022-10-19T00:14:21;19.00;91.50
51383;DHT22;37475;43.358;1.248;2022-10-19T00:16:50;19.00;91.50
51383;DHT22;37475;43.358;1.248;2022-10-19T00:19:23;18.90;91.80
51383;DHT22;37475;43.358;1.248;2022-10-19T00:21:50;19.00;91.70
51383;DHT22;37475;43.358;1.248;2022-10-19T00:24:17;19.00;91.70
51383;DHT22;37475;43.358;1.248;2022-10-19T00:26:43;19.00;91.60
51383;DHT22;37475;43.358;1.248;2022-10-19T00:29:11;18.90;91.90
51383;DHT22;37475;43.358;1.248;2022-10-19T00:31:39;19.00;91.80
51383;DHT22;37475;43.358;1.248;2022-10-19T00:34:05;19.00;91.80
51383;DHT22;37475;43.358;1.248;2022-10-19T00:36:34;19.00;91.70
51383;DHT22;37475;43.358;1.248;2022-10-19T00:39:03;18.90;91.80
51383;DHT22;37475;43.358;1.248;2022-10-19T00:41:31;19.00;91.90
51383;DHT22;37475;43.358;1.248;2022-10-19T00:44:53;19.00;91.90
51383;DHT22;37475;43.358;1.248;2022-10-19T00:46:59;19.00;91.70
51383;DHT22;37475;43.358;1.248;2022-10-19T00:49:32;19.00;91.70
51383;DHT22;37475;43.358;1.248;2022-10-19T00:52:07;18.90;92.00
51383;DHT22;37475;43.358;1.248;2022-10-19T00:54:37;18.90;91.80
51383;DHT22;37475;43.358;1.248;2022-10-19T00:57:04;18.90;92.00
51383;DHT22;37475;43.358;1.248;2022-10-19T00:59:31;18.90;92.00
51383;DHT22;37475;43.358;1.248;2022-10-19T01:01:58;18.90;92.00
51383;DHT22;37475;43.358;1.248;2022-10-19T01:04:26;18.80;92.10
51383;DHT22;37475;43.358;1.248;2022-10-19T01:06:53;18.90;92.30
51383;DHT22;37475;43.358;1.248;2022-10-19T01:09:19;18.90;92.10
51383;DHT22;37475;43.358;1.248;2022-10-19T01:20:32;18.80;92.00
51383;DHT22;37475;43.358;1.248;2022-10-19T01:29:36;18.80;92.20
51383;DHT22;37475;43.358;1.248;2022-10-19T01:32:52;18.80;92.10
51383;DHT22;37475;43.358;1.248;2022-10-19T01:35:37;18.80;92.40
51383;DHT22;37475;43.358;1.248;2022-10-19T01:38:21;18.70;92.50
51383;DHT22;37475;43.358;1.248;2022-10-19T01:41:00;18.70;92.50
51383;DHT22;37475;43.358;1.248;2022-10-19T01:44:04;18.70;92.50
51383;DHT22;37475;43.358;1.248;2022-10-19T01:46:38;18.60;92.40
51383;DHT22;37475;43.358;1.248;2022-10-19T01:51:59;18.60;92.50
51383;DHT22;37475;43.358;1.248;2022-10-19T01:54:31;18.60;92.80
51383;DHT22;37475;43.358;1.248;2022-10-19T01:57:01;18.60;92.80
51383;DHT22;37475;43.358;1.248;2022-10-19T01:59:29;18.60;92.90
51383;DHT22;37475;43.358;1.248;2022-10-19T02:01:57;18.60;92.80
51383;DHT22;37475;43.358;1.248;2022-10-19T02:04:24;18.60;92.80
51383;DHT22;37475;43.358;1.248;2022-10-19T02:06:52;18.60;92.70
51383;DHT22;37475;43.358;1.248;2022-10-19T02:09:18;18.60;92.80
51383;DHT22;37475;43.358;1.248;2022-10-19T02:11:56;18.60;92.70
51383;DHT22;37475;43.358;1.248;2022-10-19T02:14:31;18.60;92.70
51383;DHT22;37475;43.358;1.248;2022-10-19T02:17:16;18.60;92.70
51383;DHT22;37475;43.358;1.248;2022-10-19T02:19:44;18.70;92.60
51383;DHT22;37475;43.358;1.248;2022-10-19T02:22:11;18.60;92.70
51383;DHT22;37475;43.358;1.248;2022-10-19T02:24:37;18.70;92.50
51383;DHT22;37475;43.358;1.248;2022-10-19T02:27:04;18.60;92.50
51383;DHT22;37475;43.358;1.248;2022-10-19T02:29:32;18.60;92.60
51383;DHT22;37475;43.358;1.248;2022-10-19T02:32:00;18.60;92.60
51383;DHT22;37475;43.358;1.248;2022-10-19T02:34:26;18.60;92.70
51383;DHT22;37475;43.358;1.248;2022-10-19T02:36:53;18.60;92.80
51383;DHT22;37475;43.358;1.248;2022-10-19T02:39:19;18.60;92.80
51383;DHT22;37475;43.358;1.248;2022-10-19T02:45:31;18.60;92.80
51383;DHT22;37475;43.358;1.248;2022-10-19T02:48:10;18.60;92.80
51383;DHT22;37475;43.358;1.248;2022-10-19T02:50:47;18.60;92.80
51383;DHT22;37475;43.358;1.248;2022-10-19T02:53:14;18.60;92.80
51383;DHT22;37475;43.358;1.248;2022-10-19T02:55:41;18.60;92.90
51383;DHT22;37475;43.358;1.248;2022-10-19T02:58:07;18.70;92.80
51383;DHT22;37475;43.358;1.248;2022-10-19T03:00:33;18.60;92.70
51383;DHT22;37475;43.358;1.248;2022-10-19T03:02:59;18.70;92.50
51383;DHT22;37475;43.358;1.248;2022-10-19T03:05:27;18.60;92.50
51383;DHT22;37475;43.358;1.248;2022-10-19T03:07:53;18.70;92.40
51383;DHT22;37475;43.358;1.248;2022-10-19T03:10:19;18.60;92.60
51383;DHT22;37475;43.358;1.248;2022-10-19T03:12:45;18.60;92.80
51383;DHT22;37475;43.358;1.248;2022-10-19T03:15:15;18.60;92.70
51383;DHT22;37475;43.358;1.248;2022-10-19T03:17:42;18.70;92.60
51383;DHT22;37475;43.358;1.248;2022-10-19T03:20:09;18.70;92.60
51383;DHT22;37475;43.358;1.248;2022-10-19T03:22:36;18.70;92.70
51383;DHT22;37475;43.358;1.248;2022-10-19T03:25:02;18.70;92.50
51383;DHT22;37475;43.358;1.248;2022-10-19T03:27:28;18.80;92.50
51383;DHT22;37475;43.358;1.248;2022-10-19T03:29:54;18.80;92.70
51383;DHT22;37475;43.358;1.248;2022-10-19T03:32:20;18.70;92.60
51383;DHT22;37475;43.358;1.248;2022-10-19T03:34:46;18.70;92.60
51383;DHT22;37475;43.358;1.248;2022-10-19T03:37:12;18.70;92.50
51383;DHT22;37475;43.358;1.248;2022-10-19T03:39:39;18.80;92.50
51383;DHT22;37475;43.358;1.248;2022-10-19T03:42:05;18.80;92.50
51383;DHT22;37475;43.358;1.248;2022-10-19T03:44:31;18.70;92.50
51383;DHT22;37475;43.358;1.248;2022-10-19T03:46:56;18.80;92.60
51383;DHT22;37475;43.358;1.248;2022-10-19T03:49:22;18.80;92.60
51383;DHT22;37475;43.358;1.248;2022-10-19T03:51:48;18.70;92.50
51383;DHT22;37475;43.358;1.248;2022-10-19T03:54:15;18.70;92.60
51383;DHT22;37475;43.358;1.248;2022-10-19T03:56:41;18.70;92.60
51383;DHT22;37475;43.358;1.248;2022-10-19T03:59:11;18.70;92.70
51383;DHT22;37475;43.358;1.248;2022-10-19T04:01:41;18.80;92.70
51383;DHT22;37475;43.358;1.248;2022-10-19T04:04:16;18.80;92.50
51383;DHT22;37475;43.358;1.248;2022-10-19T04:06:45;18.90;92.40
51383;DHT22;37475;43.358;1.248;2022-10-19T04:09:14;18.90;92.40
51383;DHT22;37475;43.358;1.248;2022-10-19T04:11:42;19.00;92.30
51383;DHT22;37475;43.358;1.248;2022-10-19T04:14:10;19.00;92.20
51383;DHT22;37475;43.358;1.248;2022-10-19T04:16:37;18.90;92.20
51383;DHT22;37475;43.358;1.248;2022-10-19T04:19:03;19.00;92.30
51383;DHT22;37475;43.358;1.248;2022-10-19T04:21:34;19.00;92.10
51383;DHT22;37475;43.358;1.248;2022-10-19T04:24:06;19.00;92.10
51383;DHT22;37475;43.358;1.248;2022-10-19T04:26:36;19.00;92.10
51383;DHT22;37475;43.358;1.248;2022-10-19T04:29:04;19.00;92.20
51383;DHT22;37475;43.358;1.248;2022-10-19T04:31:29;19.00;92.00
51383;DHT22;37475;43.358;1.248;2022-10-19T04:33:56;19.00;92.00
51383;DHT22;37475;43.358;1.248;2022-10-19T04:36:22;19.10;91.80
51383;DHT22;37475;43.358;1.248;2022-10-19T04:38:48;19.00;91.80
51383;DHT22;37475;43.358;1.248;2022-10-19T04:41:16;19.00;91.90
51383;DHT22;37475;43.358;1.248;2022-10-19T04:43:44;19.00;92.00
51383;DHT22;37475;43.358;1.248;2022-10-19T04:46:15;19.10;92.00
51383;DHT22;37475;43.358;1.248;2022-10-19T04:48:43;19.00;91.80
51383;DHT22;37475;43.358;1.248;2022-10-19T04:51:10;19.00;91.90
51383;DHT22;37475;43.358;1.248;2022-10-19T04:53:38;19.00;91.80
51383;DHT22;37475;43.358;1.248;2022-10-19T04:56:07;19.00;91.80
51383;DHT22;37475;43.358;1.248;2022-10-19T04:58:35;19.10;91.80
51383;DHT22;37475;43.358;1.248;2022-10-19T05:01:09;19.00;91.60
51383;DHT22;37475;43.358;1.248;2022-10-19T05:03:36;19.00;91.90
51383;DHT22;37475;43.358;1.248;2022-10-19T05:06:02;19.00;91.80
51383;DHT22;37475;43.358;1.248;2022-10-19T05:08:29;19.00;91.60
51383;DHT22;37475;43.358;1.248;2022-10-19T05:11:03;19.10;91.50
51383;DHT22;37475;43.358;1.248;2022-10-19T05:13:33;19.10;91.30
51383;DHT22;37475;43.358;1.248;2022-10-19T05:16:01;19.10;91.50
51383;DHT22;37475;43.358;1.248;2022-10-19T05:18:28;19.00;91.40
51383;DHT22;37475;43.358;1.248;2022-10-19T05:21:05;19.00;91.50
51383;DHT22;37475;43.358;1.248;2022-10-19T05:23:33;19.00;91.40
51383;DHT22;37475;43.358;1.248;2022-10-19T05:26:00;19.00;91.60
51383;DHT22;37475;43.358;1.248;2022-10-19T05:28:28;19.00;91.40
51383;DHT22;37475;43.358;1.248;2022-10-19T05:30:54;19.10;91.30
51383;DHT22;37475;43.358;1.248;2022-10-19T05:33:20;19.00;91.30
51383;DHT22;37475;43.358;1.248;2022-10-19T05:35:46;19.00;91.30
51383;DHT22;37475;43.358;1.248;2022-10-19T05:38:11;19.10;91.40
51383;DHT22;37475;43.358;1.248;2022-10-19T05:40:37;19.10;91.20
51383;DHT22;37475;43.358;1.248;2022-10-19T05:43:09;19.00;91.20
51383;DHT22;37475;43.358;1.248;2022-10-19T05:45:34;19.00;91.20
51383;DHT22;37475;43.358;1.248;2022-10-19T05:48:00;19.00;91.10
51383;DHT22;37475;43.358;1.248;2022-10-19T05:50:26;19.00;91.10
51383;DHT22;37475;43.358;1.248;2022-10-19T05:52:52;19.00;91.10
51383;DHT22;37475;43.358;1.248;2022-10-19T05:55:17;19.00;91.10
51383;DHT22;37475;43.358;1.248;2022-10-19T05:57:43;19.00;91.20
51383;DHT22;37475;43.358;1.248;2022-10-19T06:00:10;18.90;91.40
51383;DHT22;37475;43.358;1.248;2022-10-19T06:02:36;19.00;91.30
51383;DHT22;37475;43.358;1.248;2022-10-19T06:05:01;19.00;91.30
51383;DHT22;37475;43.358;1.248;2022-10-19T06:07:27;19.00;91.30
51383;DHT22;37475;43.358;1.248;2022-10-19T06:09:53;19.00;91.20
51383;DHT22;37475;43.358;1.248;2022-10-19T06:12:19;18.90;91.20
51383;DHT22;37475;43.358;1.248;2022-10-19T06:14:45;19.00;91.30
51383;DHT22;37475;43.358;1.248;2022-10-19T06:17:10;19.00;91.20
51383;DHT22;37475;43.358;1.248;2022-10-19T06:19:36;19.00;91.10
51383;DHT22;37475;43.358;1.248;2022-10-19T06:22:02;19.00;91.10
51383;DHT22;37475;43.358;1.248;2022-10-19T06:24:28;19.00;91.10
51383;DHT22;37475;43.358;1.248;2022-10-19T06:26:53;19.00;91.00
51383;DHT22;37475;43.358;1.248;2022-10-19T06:29:19;19.10;91.10
51383;DHT22;37475;43.358;1.248;2022-10-19T06:31:46;19.10;90.80
51383;DHT22;37475;43.358;1.248;2022-10-19T06:34:12;19.10;90.80
51383;DHT22;37475;43.358;1.248;2022-10-19T06:36:38;19.10;90.80
51383;DHT22;37475;43.358;1.248;2022-10-19T06:39:04;19.10;90.80
51383;DHT22;37475;43.358;1.248;2022-10-19T06:41:30;19.10;90.90
51383;DHT22;37475;43.358;1.248;2022-10-19T06:43:57;19.10;90.80
51383;DHT22;37475;43.358;1.248;2022-10-19T06:46:25;19.10;90.70
51383;DHT22;37475;43.358;1.248;2022-10-19T06:48:54;19.10;90.60
51383;DHT22;37475;43.358;1.248;2022-10-19T06:51:22;19.10;90.70
51383;DHT22;37475;43.358;1.248;2022-10-19T06:53:49;19.10;90.70
51383;DHT22;37475;43.358;1.248;2022-10-19T06:56:16;19.20;90.60
51383;DHT22;37475;43.358;1.248;2022-10-19T06:58:41;19.20;90.50
51383;DHT22;37475;43.358;1.248;2022-10-19T07:01:08;19.30;90.40
51383;DHT22;37475;43.358;1.248;2022-10-19T07:03:35;19.30;90.30
51383;DHT22;37475;43.358;1.248;2022-10-19T07:06:03;19.30;90.20
51383;DHT22;37475;43.358;1.248;2022-10-19T07:08:31;19.40;90.20
51383;DHT22;37475;43.358;1.248;2022-10-19T07:11:00;19.40;90.10
51383;DHT22;37475;43.358;1.248;2022-10-19T07:13:29;19.50;90.00
51383;DHT22;37475;43.358;1.248;2022-10-19T07:16:09;19.50;89.70
51383;DHT22;37475;43.358;1.248;2022-10-19T07:18:38;19.60;89.50
51383;DHT22;37475;43.358;1.248;2022-10-19T07:21:10;19.60;89.40
51383;DHT22;37475;43.358;1.248;2022-10-19T07:23:39;19.60;89.40
51383;DHT22;37475;43.358;1.248;2022-10-19T07:26:09;19.60;89.30
51383;DHT22;37475;43.358;1.248;2022-10-19T07:28:38;19.70;89.20
51383;DHT22;37475;43.358;1.248;2022-10-19T07:31:09;19.70;89.20
51383;DHT22;37475;43.358;1.248;2022-10-19T07:33:37;19.70;89.00
51383;DHT22;37475;43.358;1.248;2022-10-19T07:36:06;19.70;89.20
51383;DHT22;37475;43.358;1.248;2022-10-19T07:38:34;19.70;89.30
51383;DHT22;37475;43.358;1.248;2022-10-19T07:41:08;19.70;89.40
51383;DHT22;37475;43.358;1.248;2022-10-19T07:43:41;19.70;89.40
51383;DHT22;37475;43.358;1.248;2022-10-19T07:46:11;19.80;89.30
51383;DHT22;37475;43.358;1.248;2022-10-19T07:48:38;19.80;89.40
51383;DHT22;37475;43.358;1.248;2022-10-19T07:51:06;19.80;89.30
51383;DHT22;37475;43.358;1.248;2022-10-19T07:53:34;19.90;89.20
51383;DHT22;37475;43.358;1.248;2022-10-19T07:56:05;19.90;89.10
51383;DHT22;37475;43.358;1.248;2022-10-19T07:58:32;19.90;89.10
51383;DHT22;37475;43.358;1.248;2022-10-19T08:01:03;19.90;89.00
51383;DHT22;37475;43.358;1.248;2022-10-19T08:03:32;20.00;89.00
51383;DHT22;37475;43.358;1.248;2022-10-19T08:06:03;20.00;88.90
51383;DHT22;37475;43.358;1.248;2022-10-19T08:08:33;20.00;88.70
51383;DHT22;37475;43.358;1.248;2022-10-19T08:11:14;20.00;88.90
51383;DHT22;37475;43.358;1.248;2022-10-19T08:13:42;20.10;88.70
51383;DHT22;37475;43.358;1.248;2022-10-19T08:16:41;20.10;88.70
51383;DHT22;37475;43.358;1.248;2022-10-19T08:19:13;20.10;88.60
51383;DHT22;37475;43.358;1.248;2022-10-19T08:21:43;20.10;88.40
51383;DHT22;37475;43.358;1.248;2022-10-19T08:24:10;20.10;88.50
51383;DHT22;37475;43.358;1.248;2022-10-19T08:26:38;20.10;88.40
51383;DHT22;37475;43.358;1.248;2022-10-19T08:29:07;20.30;88.20
51383;DHT22;37475;43.358;1.248;2022-10-19T08:31:34;20.30;88.00
51383;DHT22;37475;43.358;1.248;2022-10-19T08:34:01;20.30;87.90
51383;DHT22;37475;43.358;1.248;2022-10-19T08:36:27;20.30;87.80
51383;DHT22;37475;43.358;1.248;2022-10-19T08:38:56;20.40;87.70
51383;DHT22;37475;43.358;1.248;2022-10-19T08:49:53;20.50;87.40
51383;DHT22;37475;43.358;1.248;2022-10-19T08:52:38;20.50;87.50
51383;DHT22;37475;43.358;1.248;2022-10-19T08:55:09;20.50;87.40
51383;DHT22;37475;43.358;1.248;2022-10-19T09:06:31;20.90;86.30
51383;DHT22;37475;43.358;1.248;2022-10-19T09:09:02;21.10;85.60
51383;DHT22;37475;43.358;1.248;2022-10-19T09:11:33;21.30;85.20
51383;DHT22;37475;43.358;1.248;2022-10-19T09:14:26;21.50;84.20
51383;DHT22;37475;43.358;1.248;2022-10-19T09:17:05;21.70;83.70
51383;DHT22;37475;43.358;1.248;2022-10-19T09:19:34;21.80;83.00
51383;DHT22;37475;43.358;1.248;2022-10-19T09:25:02;22.00;82.10
51383;DHT22;37475;43.358;1.248;2022-10-19T09:27:39;22.10;82.00
51383;DHT22;37475;43.358;1.248;2022-10-19T09:30:16;22.10;81.60
51383;DHT22;37475;43.358;1.248;2022-10-19T09:32:44;22.10;81.30
51383;DHT22;37475;43.358;1.248;2022-10-19T09:38:01;22.60;80.40
51383;DHT22;37475;43.358;1.248;2022-10-19T09:40:30;22.70;79.70
51383;DHT22;37475;43.358;1.248;2022-10-19T09:42:57;22.80;79.10
51383;DHT22;37475;43.358;1.248;2022-10-19T09:45:50;22.90;79.00
51383;DHT22;37475;43.358;1.248;2022-10-19T09:51:16;22.90;78.10
51383;DHT22;37475;43.358;1.248;2022-10-19T09:53:49;22.80;78.30
51383;DHT22;37475;43.358;1.248;2022-10-19T09:56:21;22.80;78.20
51383;DHT22;37475;43.358;1.248;2022-10-19T09:58:53;22.80;77.90
51383;DHT22;37475;43.358;1.248;2022-10-19T10:01:34;22.70;78.40
51383;DHT22;37475;43.358;1.248;2022-10-19T10:04:10;22.60;78.60
51383;DHT22;37475;43.358;1.248;2022-10-19T10:06:40;22.70;77.30
51383;DHT22;37475;43.358;1.248;2022-10-19T10:09:19;22.70;77.60
51383;DHT22;37475;43.358;1.248;2022-10-19T10:11:49;22.60;77.00
51383;DHT22;37475;43.358;1.248;2022-10-19T10:14:19;22.80;77.10
51383;DHT22;37475;43.358;1.248;2022-10-19T10:16:48;22.80;76.80
51383;DHT22;37475;43.358;1.248;2022-10-19T10:19:20;22.90;76.20
51383;DHT22;37475;43.358;1.248;2022-10-19T10:21:53;23.00;76.60
51383;DHT22;37475;43.358;1.248;2022-10-19T10:24:26;23.00;75.70
51383;DHT22;37475;43.358;1.248;2022-10-19T10:26:56;23.10;75.40
51383;DHT22;37475;43.358;1.248;2022-10-19T10:29:28;23.20;75.00
51383;DHT22;37475;43.358;1.248;2022-10-19T10:32:10;23.50;74.30
51383;DHT22;37475;43.358;1.248;2022-10-19T10:34:44;23.60;72.80
51383;DHT22;37475;43.358;1.248;2022-10-19T10:37:35;23.70;73.10
51383;DHT22;37475;43.358;1.248;2022-10-19T10:40:04;23.50;72.90
51383;DHT22;37475;43.358;1.248;2022-10-19T10:42:40;23.50;73.40
51383;DHT22;37475;43.358;1.248;2022-10-19T10:45:18;23.50;73.40
51383;DHT22;37475;43.358;1.248;2022-10-19T10:47:48;23.50;73.50
51383;DHT22;37475;43.358;1.248;2022-10-19T10:50:28;23.70;72.70
51383;DHT22;37475;43.358;1.248;2022-10-19T10:53:03;23.70;72.60
51383;DHT22;37475;43.358;1.248;2022-10-19T10:55:32;24.00;72.10
51383;DHT22;37475;43.358;1.248;2022-10-19T10:58:22;24.10;71.20
51383;DHT22;37475;43.358;1.248;2022-10-19T11:01:04;23.90;71.50
51383;DHT22;37475;43.358;1.248;2022-10-19T11:03:35;23.80;71.60
51383;DHT22;37475;43.358;1.248;2022-10-19T11:06:03;23.80;71.30
51383;DHT22;37475;43.358;1.248;2022-10-19T11:08:44;23.90;71.30
51383;DHT22;37475;43.358;1.248;2022-10-19T11:13:50;23.80;71.00
51383;DHT22;37475;43.358;1.248;2022-10-19T11:16:40;23.90;70.90
51383;DHT22;37475;43.358;1.248;2022-10-19T11:19:18;24.00;70.60
51383;DHT22;37475;43.358;1.248;2022-10-19T11:30:27;24.10;70.80
51383;DHT22;37475;43.358;1.248;2022-10-19T11:36:45;24.10;71.00
51383;DHT22;37475;43.358;1.248;2022-10-19T11:43:03;24.10;71.90
51383;DHT22;37475;43.358;1.248;2022-10-19T11:45:40;24.10;72.30
51383;DHT22;37475;43.358;1.248;2022-10-19T11:54:11;23.80;73.30
51383;DHT22;37475;43.358;1.248;2022-10-19T12:00:07;23.90;73.00
51383;DHT22;37475;43.358;1.248;2022-10-19T12:06:10;24.10;72.00
51383;DHT22;37475;43.358;1.248;2022-10-19T12:15:15;24.30;71.20
51383;DHT22;37475;43.358;1.248;2022-10-19T12:17:45;24.50;70.20
51383;DHT22;37475;43.358;1.248;2022-10-19T12:20:29;24.60;70.50
51383;DHT22;37475;43.358;1.248;2022-10-19T12:23:11;24.60;69.80
51383;DHT22;37475;43.358;1.248;2022-10-19T12:25:44;24.40;70.50
51383;DHT22;37475;43.358;1.248;2022-10-19T12:28:20;24.30;70.80
51383;DHT22;37475;43.358;1.248;2022-10-19T12:30:50;24.40;71.10
51383;DHT22;37475;43.358;1.248;2022-10-19T12:41:59;24.00;72.50
51383;DHT22;37475;43.358;1.248;2022-10-19T12:56:20;24.00;73.80
51383;DHT22;37475;43.358;1.248;2022-10-19T12:59:14;24.10;73.40
51383;DHT22;37475;43.358;1.248;2022-10-19T13:01:50;24.00;73.10
51383;DHT22;37475;43.358;1.248;2022-10-19T13:04:22;24.00;73.60
51383;DHT22;37475;43.358;1.248;2022-10-19T13:06:58;23.90;74.00
51383;DHT22;37475;43.358;1.248;2022-10-19T13:22:40;23.90;74.10
51383;DHT22;37475;43.358;1.248;2022-10-19T13:25:33;23.80;74.00
51383;DHT22;37475;43.358;1.248;2022-10-19T13:36:10;23.50;75.30
51383;DHT22;37475;43.358;1.248;2022-10-19T13:41:24;23.40;75.40
51383;DHT22;37475;43.358;1.248;2022-10-19T13:58:09;23.40;75.50
51383;DHT22;37475;43.358;1.248;2022-10-19T14:04:12;23.50;75.30
51383;DHT22;37475;43.358;1.248;2022-10-19T14:06:59;23.50;75.20
51383;DHT22;37475;43.358;1.248;2022-10-19T14:09:49;23.50;74.80
51383;DHT22;37475;43.358;1.248;2022-10-19T14:12:26;23.60;74.70
51383;DHT22;37475;43.358;1.248;2022-10-19T14:14:54;23.60;74.40
51383;DHT22;37475;43.358;1.248;2022-10-19T14:17:22;23.60;74.20
51383;DHT22;37475;43.358;1.248;2022-10-19T14:19:55;23.70;74.20
51383;DHT22;37475;43.358;1.248;2022-10-19T14:22:35;23.60;73.90
51383;DHT22;37475;43.358;1.248;2022-10-19T14:25:15;23.60;74.10
51383;DHT22;37475;43.358;1.248;2022-10-19T14:27:44;23.80;73.90
51383;DHT22;37475;43.358;1.248;2022-10-19T14:30:27;23.80;74.00
51383;DHT22;37475;43.358;1.248;2022-10-19T14:32:56;23.80;73.70
51383;DHT22;37475;43.358;1.248;2022-10-19T14:35:28;23.80;73.10
51383;DHT22;37475;43.358;1.248;2022-10-19T14:37:56;23.80;73.70
51383;DHT22;37475;43.358;1.248;2022-10-19T14:40:36;23.90;73.60
51383;DHT22;37475;43.358;1.248;2022-10-19T14:43:27;23.90;73.50
51383;DHT22;37475;43.358;1.248;2022-10-19T14:48:45;23.60;73.50
51383;DHT22;37475;43.358;1.248;2022-10-19T14:51:29;23.60;73.30
51383;DHT22;37475;43.358;1.248;2022-10-19T14:54:15;23.60;73.30
51383;DHT22;37475;43.358;1.248;2022-10-19T14:59:35;23.50;73.50
51383;DHT22;37475;43.358;1.248;2022-10-19T15:02:15;23.60;73.40
51383;DHT22;37475;43.358;1.248;2022-10-19T15:04:42;23.60;72.80
51383;DHT22;37475;43.358;1.248;2022-10-19T15:07:29;23.50;73.00
51383;DHT22;37475;43.358;1.248;2022-10-19T15:10:02;23.50;73.00
51383;DHT22;37475;43.358;1.248;2022-10-19T15:12:37;23.50;73.20
51383;DHT22;37475;43.358;1.248;2022-10-19T15:15:17;23.50;73.60
51383;DHT22;37475;43.358;1.248;2022-10-19T15:18:04;23.40;73.90
51383;DHT22;37475;43.358;1.248;2022-10-19T15:20:36;23.20;74.50
51383;DHT22;37475;43.358;1.248;2022-10-19T15:23:44;23.20;74.30
51383;DHT22;37475;43.358;1.248;2022-10-19T15:28:53;23.10;74.70
51383;DHT22;37475;43.358;1.248;2022-10-19T15:31:24;23.10;74.60
51383;DHT22;37475;43.358;1.248;2022-10-19T15:33:58;23.00;74.30
51383;DHT22;37475;43.358;1.248;2022-10-19T15:36:26;23.00;74.40
51383;DHT22;37475;43.358;1.248;2022-10-19T15:41:31;22.90;74.00
51383;DHT22;37475;43.358;1.248;2022-10-19T15:44:00;22.90;74.00
51383;DHT22;37475;43.358;1.248;2022-10-19T15:46:29;22.80;74.30
51383;DHT22;37475;43.358;1.248;2022-10-19T15:51:44;22.70;74.30
51383;DHT22;37475;43.358;1.248;2022-10-19T15:54:13;22.60;74.50
51383;DHT22;37475;43.358;1.248;2022-10-19T15:56:44;22.60;74.50
51383;DHT22;37475;43.358;1.248;2022-10-19T15:59:18;22.50;74.70
51383;DHT22;37475;43.358;1.248;2022-10-19T16:01:46;22.50;74.60
51383;DHT22;37475;43.358;1.248;2022-10-19T16:04:15;22.50;74.70
51383;DHT22;37475;43.358;1.248;2022-10-19T16:06:43;22.50;74.70
51383;DHT22;37475;43.358;1.248;2022-10-19T16:09:19;22.40;74.90
51383;DHT22;37475;43.358;1.248;2022-10-19T16:11:45;22.40;74.90
51383;DHT22;37475;43.358;1.248;2022-10-19T16:14:12;22.40;75.00
51383;DHT22;37475;43.358;1.248;2022-10-19T16:16:37;22.30;75.20
51383;DHT22;37475;43.358;1.248;2022-10-19T16:19:03;22.30;75.20
51383;DHT22;37475;43.358;1.248;2022-10-19T16:21:31;22.20;75.40
51383;DHT22;37475;43.358;1.248;2022-10-19T16:23:59;22.20;75.60
51383;DHT22;37475;43.358;1.248;2022-10-19T16:26:25;22.20;75.60
51383;DHT22;37475;43.358;1.248;2022-10-19T16:28:53;22.10;75.80
51383;DHT22;37475;43.358;1.248;2022-10-19T16:31:19;22.10;76.10
51383;DHT22;37475;43.358;1.248;2022-10-19T16:33:46;22.10;76.40
51383;DHT22;37475;43.358;1.248;2022-10-19T16:36:11;22.00;76.40
51383;DHT22;37475;43.358;1.248;2022-10-19T16:38:38;22.00;76.40
51383;DHT22;37475;43.358;1.248;2022-10-19T16:41:06;22.00;76.80
51383;DHT22;37475;43.358;1.248;2022-10-19T16:43:33;22.00;76.90
51383;DHT22;37475;43.358;1.248;2022-10-19T16:46:00;22.00;76.90
51383;DHT22;37475;43.358;1.248;2022-10-19T16:48:26;22.00;76.70
51383;DHT22;37475;43.358;1.248;2022-10-19T16:53:35;22.00;76.50
51383;DHT22;37475;43.358;1.248;2022-10-19T16:56:04;21.90;76.50
51383;DHT22;37475;43.358;1.248;2022-10-19T16:58:31;21.90;76.50
51383;DHT22;37475;43.358;1.248;2022-10-19T17:00:57;21.90;76.40
51383;DHT22;37475;43.358;1.248;2022-10-19T17:03:27;21.90;76.60
51383;DHT22;37475;43.358;1.248;2022-10-19T17:05:53;21.90;76.50
51383;DHT22;37475;43.358;1.248;2022-10-19T17:08:18;21.80;76.80
51383;DHT22;37475;43.358;1.248;2022-10-19T17:10:44;21.80;77.00
51383;DHT22;37475;43.358;1.248;2022-10-19T17:13:11;21.80;77.10
51383;DHT22;37475;43.358;1.248;2022-10-19T17:15:37;21.70;77.30
51383;DHT22;37475;43.358;1.248;2022-10-19T17:18:03;21.70;77.50
51383;DHT22;37475;43.358;1.248;2022-10-19T17:20:31;21.70;77.60
51383;DHT22;37475;43.358;1.248;2022-10-19T17:22:57;21.70;77.80
51383;DHT22;37475;43.358;1.248;2022-10-19T17:25:23;21.70;78.00
51383;DHT22;37475;43.358;1.248;2022-10-19T17:27:50;21.60;78.10
51383;DHT22;37475;43.358;1.248;2022-10-19T17:30:16;21.60;78.30
51383;DHT22;37475;43.358;1.248;2022-10-19T17:32:43;21.50;78.40
51383;DHT22;37475;43.358;1.248;2022-10-19T17:35:09;21.60;78.50
51383;DHT22;37475;43.358;1.248;2022-10-19T17:37:35;21.50;78.30
51383;DHT22;37475;43.358;1.248;2022-10-19T17:40:00;21.60;78.50
51383;DHT22;37475;43.358;1.248;2022-10-19T17:42:26;21.50;78.50
51383;DHT22;37475;43.358;1.248;2022-10-19T17:44:55;21.60;78.40
51383;DHT22;37475;43.358;1.248;2022-10-19T17:47:21;21.50;78.50
51383;DHT22;37475;43.358;1.248;2022-10-19T17:49:47;21.50;78.50
51383;DHT22;37475;43.358;1.248;2022-10-19T17:52:12;21.50;78.50
51383;DHT22;37475;43.358;1.248;2022-10-19T17:54:38;21.50;78.90
51383;DHT22;37475;43.358;1.248;2022-10-19T17:57:04;21.40;79.20
51383;DHT22;37475;43.358;1.248;2022-10-19T17:59:30;21.40;79.10
51383;DHT22;37475;43.358;1.248;2022-10-19T18:01:55;21.40;79.10
51383;DHT22;37475;43.358;1.248;2022-10-19T18:04:21;21.30;79.30
51383;DHT22;37475;43.358;1.248;2022-10-19T18:06:47;21.30;79.50
51383;DHT22;37475;43.358;1.248;2022-10-19T18:09:13;21.30;79.30
51383;DHT22;37475;43.358;1.248;2022-10-19T18:11:42;21.30;79.30
51383;DHT22;37475;43.358;1.248;2022-10-19T18:14:10;21.30;79.40
51383;DHT22;37475;43.358;1.248;2022-10-19T18:16:40;21.30;79.50
51383;DHT22;37475;43.358;1.248;2022-10-19T18:19:10;21.20;79.80
51383;DHT22;37475;43.358;1.248;2022-10-19T18:21:39;21.20;80.00
51383;DHT22;37475;43.358;1.248;2022-10-19T18:24:07;21.20;79.70
51383;DHT22;37475;43.358;1.248;2022-10-19T18:26:35;21.20;79.80
51383;DHT22;37475;43.358;1.248;2022-10-19T18:29:09;21.20;79.80
51383;DHT22;37475;43.358;1.248;2022-10-19T18:31:46;21.20;79.90
51383;DHT22;37475;43.358;1.248;2022-10-19T18:34:16;21.20;79.80
51383;DHT22;37475;43.358;1.248;2022-10-19T18:36:43;21.20;79.80